createdAt,value
2023-01-06T00:02:12.261Z,75.62
2023-01-06T00:07:12.297Z,76.34
2023-01-06T00:12:12.003Z,75.62
2023-01-06T00:17:12.187Z,74.63
2023-01-06T00:22:11.937Z,74.84
2023-01-06T00:27:11.831Z,75.38
2023-01-06T00:32:15.325Z,76.03
2023-01-06T00:37:11.938Z,76.71
2023-01-06T00:56:40.272Z,77.94
2023-01-06T01:16:39.845Z,76.57
2023-01-06T01:21:39.648Z,75.92
2023-01-06T01:26:39.654Z,75.71
2023-01-06T01:31:39.447Z,77.01
2023-01-06T01:36:39.786Z,76.61
2023-01-06T01:41:39.216Z,76.30
2023-01-06T01:46:39.257Z,76.67
2023-01-06T01:51:39.015Z,75.58
2023-01-06T01:56:39.059Z,75.78
2023-01-06T02:03:09.196Z,76.88
2023-01-06T02:08:08.695Z,77.97
2023-01-06T02:13:08.743Z,77.25
2023-01-06T02:18:08.450Z,77.19
2023-01-06T02:23:08.546Z,77.97
2023-01-06T02:28:08.235Z,77.76
2023-01-06T02:33:08.267Z,79.84
2023-01-06T02:38:08.305Z,79.94
2023-01-06T02:43:08.225Z,80.62
2023-01-06T02:48:08.183Z,80.52
2023-01-06T02:53:11.127Z,81.17
2023-01-06T02:58:08.980Z,81.34
2023-01-06T03:03:07.972Z,80.42
2023-01-06T03:08:07.796Z,80.42
2023-01-06T03:13:07.672Z,81.38
2023-01-06T03:18:07.727Z,80.89
2023-01-06T03:23:07.717Z,80.69
2023-01-06T03:28:07.483Z,80.73
2023-01-06T03:33:08.501Z,79.73
2023-01-06T03:38:07.390Z,80.38
2023-01-06T03:43:07.351Z,78.77
2023-01-06T03:48:07.501Z,80.14
2023-01-06T04:01:29.438Z,82.36
2023-01-06T04:06:29.253Z,81.44
2023-01-06T04:11:29.291Z,81.58
2023-01-06T04:16:28.976Z,80.93
2023-01-06T04:21:29.104Z,82.50
2023-01-06T04:26:29.059Z,81.65
2023-01-06T04:31:28.900Z,82.05
2023-01-06T04:36:28.899Z,81.24
2023-01-06T04:41:28.870Z,80.73
2023-01-06T04:46:33.848Z,81.03
2023-01-06T04:51:39.006Z,80.48
2023-01-06T04:56:28.610Z,83.01
2023-01-06T05:01:28.650Z,82.15
2023-01-06T05:06:28.295Z,80.69
2023-01-06T05:11:28.587Z,79.69
2023-01-06T05:16:35.995Z,81.95
2023-01-06T05:26:55.498Z,83.18
2023-01-06T05:33:23.574Z,82.12
2023-01-06T05:40:26.059Z,83.28
2023-01-06T05:48:08.656Z,82.42
2023-01-06T05:53:17.069Z,83.10
2023-01-06T05:59:27.560Z,82.63
2023-01-06T06:04:27.260Z,82.93
2023-01-06T06:09:27.368Z,83.24
2023-01-06T06:14:27.114Z,82.53
2023-01-06T06:19:27.294Z,82.79
2023-01-06T06:24:27.216Z,83.34
2023-01-06T06:33:52.767Z,82.69
2023-01-06T06:38:53.238Z,82.53
2023-01-06T06:52:45.069Z,82.89
2023-01-06T07:21:39.023Z,86.41
2023-01-06T07:26:39.104Z,85.89
2023-01-06T07:31:38.514Z,86.55
2023-01-06T07:36:38.636Z,86.55
2023-01-06T07:41:38.637Z,86.71
2023-01-06T07:46:41.320Z,85.96
2023-01-06T07:51:38.201Z,85.28
2023-01-06T07:56:38.509Z,84.47
2023-01-06T08:01:38.335Z,83.71
2023-01-06T08:06:38.004Z,82.51
2023-01-06T08:11:41.194Z,81.76
2023-01-06T08:16:38.006Z,82.65
2023-01-06T08:21:38.877Z,81.18
2023-01-06T08:26:37.858Z,82.17
2023-01-06T08:31:37.739Z,82.51
2023-01-06T08:36:44.354Z,82.82
2023-01-06T08:41:37.810Z,82.47
2023-01-06T08:46:37.652Z,80.36
2023-01-06T08:51:42.319Z,79.54
2023-01-06T08:56:37.610Z,79.81
2023-01-06T09:01:37.560Z,78.86
2023-01-06T09:06:37.614Z,79.68
2023-01-06T09:12:58.412Z,79.41
2023-01-06T09:17:58.076Z,82.54
2023-01-06T09:22:59.133Z,79.79
2023-01-06T09:27:57.926Z,79.34
2023-01-06T09:32:58.060Z,76.62
2023-01-06T09:37:58.024Z,75.91
2023-01-06T09:42:57.883Z,75.81
2023-01-06T10:06:12.240Z,73.30
2023-01-06T10:11:12.168Z,72.69
2023-01-06T10:16:12.032Z,71.97
2023-01-06T10:25:42.724Z,70.21
2023-01-06T10:30:44.349Z,72.25
2023-01-06T10:38:55.084Z,72.14
2023-01-06T10:43:55.066Z,71.36
2023-01-06T10:48:55.051Z,71.43
2023-01-06T10:54:02.347Z,69.13
2023-01-06T10:58:54.690Z,69.02
2023-01-06T11:03:54.685Z,68.25
2023-01-06T11:08:54.827Z,68.69
2023-01-06T11:58:38.844Z,66.49
2023-01-06T12:03:37.736Z,66.38
2023-01-06T12:08:37.655Z,66.02
2023-01-06T12:13:44.500Z,66.25
2023-01-06T12:18:38.520Z,66.02
2023-01-06T12:23:37.605Z,65.14
2023-01-06T12:28:37.706Z,65.48
2023-01-06T12:33:37.285Z,63.79
2023-01-06T12:38:37.265Z,63.73
2023-01-06T12:43:37.124Z,62.92
2023-01-06T12:48:40.151Z,63.06
2023-01-06T12:53:37.044Z,63.23
2023-01-06T12:58:37.083Z,63.82
2023-01-06T13:03:37.042Z,62.85
2023-01-06T13:08:38.136Z,63.06
2023-01-06T13:13:36.772Z,64.91
2023-01-06T13:18:36.783Z,64.81
2023-01-06T13:23:36.758Z,65.07
2023-01-06T13:28:36.648Z,64.46
2023-01-06T13:33:36.692Z,65.71
2023-01-06T13:38:36.999Z,65.68
2023-01-06T13:43:36.464Z,65.99
2023-01-06T13:48:39.552Z,65.14
2023-01-06T13:53:36.237Z,66.52
2023-01-06T14:08:21.540Z,66.26
2023-01-06T14:13:21.473Z,65.27
2023-01-06T14:18:21.266Z,66.60
2023-01-06T14:23:21.132Z,67.36
2023-01-06T14:29:38.247Z,65.81
2023-01-06T14:34:38.039Z,66.08
2023-01-06T14:39:38.392Z,66.93
2023-01-06T14:44:37.911Z,67.88
2023-01-06T14:49:37.928Z,66.96
2023-01-06T14:54:37.878Z,67.67
2023-01-06T14:59:37.980Z,67.36
2023-01-06T15:04:37.678Z,68.52
2023-01-06T15:09:37.841Z,69.19
2023-01-06T15:18:03.227Z,68.21
2023-01-06T15:23:02.984Z,69.16
2023-01-06T15:28:02.942Z,70.34
2023-01-06T15:33:03.082Z,70.86
2023-01-06T15:38:02.815Z,71.67
2023-01-06T15:45:06.185Z,71.47
2023-01-06T15:50:04.007Z,71.60
2023-01-06T15:55:03.928Z,72.31
2023-01-06T16:00:03.999Z,72.62
2023-01-06T16:05:03.943Z,71.56
2023-01-06T16:10:04.070Z,70.95
2023-01-06T16:15:04.020Z,71.53
2023-01-06T16:20:03.984Z,71.56
2023-01-06T16:25:03.764Z,72.52
2023-01-06T16:34:08.561Z,72.62
2023-01-06T16:39:08.130Z,72.92
2023-01-06T16:46:25.128Z,71.80
2023-01-06T16:51:32.671Z,71.47
2023-01-06T16:56:24.934Z,72.65
2023-01-06T17:01:25.039Z,72.14
2023-01-06T17:07:45.666Z,73.33
2023-01-06T17:12:45.439Z,73.50
2023-01-06T17:17:45.685Z,72.89
2023-01-06T17:22:45.440Z,73.67
2023-01-06T17:27:45.314Z,75.48
2023-01-06T17:32:45.330Z,75.62
2023-01-06T17:37:45.355Z,76.20
2023-01-06T17:42:45.478Z,77.05
2023-01-06T17:47:45.119Z,78.45
2023-01-06T17:52:45.113Z,78.56
2023-01-06T17:57:48.052Z,79.31
2023-01-06T18:02:44.930Z,79.72
2023-01-06T18:07:44.759Z,79.11
2023-01-06T18:12:44.760Z,79.00
2023-01-06T18:17:44.753Z,79.17
2023-01-06T18:22:44.557Z,78.45
2023-01-06T18:27:44.765Z,79.21
2023-01-06T18:32:44.509Z,78.97
2023-01-06T18:37:44.575Z,78.90
2023-01-06T18:42:44.354Z,79.31
2023-01-06T18:47:44.314Z,80.41
2023-01-06T18:52:44.137Z,79.14
2023-01-06T18:57:47.184Z,79.45
2023-01-06T19:02:44.111Z,80.21
2023-01-06T19:07:44.005Z,80.17
2023-01-06T19:12:43.975Z,79.00
2023-01-06T19:17:43.863Z,78.66
2023-01-06T19:22:43.731Z,78.08
2023-01-06T19:27:43.833Z,76.71
2023-01-06T19:32:43.591Z,76.81
2023-01-06T19:37:43.747Z,76.88
2023-01-06T19:42:51.230Z,74.46
2023-01-06T19:47:43.412Z,76.37
2023-01-06T19:52:43.364Z,76.88
2023-01-06T19:57:46.441Z,77.12
2023-01-06T20:02:51.084Z,78.08
2023-01-06T20:07:43.111Z,77.42
2023-01-06T20:14:00.909Z,77.12
2023-01-06T20:19:00.527Z,77.39
2023-01-06T20:24:00.553Z,76.98
2023-01-06T20:29:00.472Z,76.78
2023-01-06T20:34:00.505Z,77.63
2023-01-06T20:39:00.445Z,77.49
2023-01-06T20:44:00.346Z,76.67
2023-01-06T20:49:00.168Z,76.64
2023-01-06T20:54:00.458Z,76.03
2023-01-06T20:59:00.018Z,76.19
2023-01-06T21:04:02.998Z,77.35
2023-01-06T21:09:00.005Z,78.20
2023-01-06T21:13:59.915Z,77.08
2023-01-06T21:18:59.743Z,77.29
2023-01-06T21:23:59.831Z,77.19
2023-01-06T21:28:59.732Z,77.73
2023-01-06T21:33:59.727Z,77.32
2023-01-06T21:38:59.481Z,78.79
2023-01-06T21:44:00.329Z,78.55
2023-01-06T21:48:59.393Z,78.34
2023-01-06T21:53:59.365Z,77.08
2023-01-06T21:58:59.252Z,77.83
2023-01-06T22:04:02.194Z,77.59
2023-01-06T22:08:59.095Z,79.10
2023-01-06T22:13:59.267Z,78.24
2023-01-06T22:18:59.012Z,77.49
2023-01-06T22:24:06.931Z,77.63
2023-01-06T22:29:06.632Z,76.88
2023-01-06T22:33:58.959Z,77.29
2023-01-06T22:38:58.963Z,77.83
2023-01-06T22:43:58.754Z,78.04
2023-01-06T22:48:58.699Z,78.34
2023-01-06T22:53:58.797Z,78.24
2023-01-06T22:58:58.815Z,78.04
2023-01-06T23:04:01.464Z,78.34
2023-01-06T23:09:00.433Z,78.79
2023-01-06T23:13:58.348Z,77.73
2023-01-06T23:18:58.482Z,78.38
2023-01-06T23:23:58.453Z,78.38
2023-01-06T23:28:58.077Z,78.63
2023-01-06T23:33:58.139Z,78.49
2023-01-06T23:38:57.959Z,78.83
2023-01-06T23:43:58.098Z,79.03
2023-01-06T23:48:57.911Z,79.17
2023-01-06T23:53:57.878Z,78.49
2023-01-06T23:58:57.792Z,78.63
